logo
Search for airport 
image banner adimage banner adimage banner ad
image banner ad

YWNN - Wandoan

Located in Wandoan, Australia

ICAO - , IATA -

Data provided by Airmate  

General information

Coordinates: S26°6'47" E149°57'25"
Elevation is 853 feet MSL.
Magnetic variation is 10° East
View others Airports in Queensland

Operational data

Special qualification required
Current time UTC:
Current local time:
Weather at : - ( 0 km )
METAR: KAFP 141617Z AUTO 22005KT 10SM CLR 33/22 A3012 RMK AO2 T03300221
View NOTAMs / SUP AIP / TFR affecting this airport [VIEW]
Communications frequencies: [VIEW]

Runways:

RWY identifierQFULength (ft)Width (ft)SurfaceLDA (ft)
23237°2798109GRAS
0557°2798109GRAS

Airport contact information

Address: Wandoan Australia

Satellite view of YWNN